createdAt,value
2022-10-20T00:00:39.285Z,14.73
2022-10-20T00:03:31.491Z,14.69
2022-10-20T00:06:12.575Z,14.59
2022-10-20T00:08:45.794Z,14.59
2022-10-20T00:11:20.567Z,14.57
2022-10-20T00:13:55.212Z,14.57
2022-10-20T00:16:29.633Z,14.55
2022-10-20T00:19:01.815Z,14.52
2022-10-20T00:21:34.691Z,14.52
2022-10-20T00:24:06.934Z,14.49
2022-10-20T00:26:39.045Z,14.45
2022-10-20T00:29:11.276Z,14.42
2022-10-20T00:31:43.533Z,14.41
2022-10-20T00:34:15.644Z,14.33
2022-10-20T00:36:50.434Z,14.34
2022-10-20T00:39:21.931Z,14.34
2022-10-20T00:41:54.007Z,14.28
2022-10-20T00:44:51.211Z,14.32
2022-10-20T00:47:32.314Z,14.31
2022-10-20T00:50:10.004Z,14.31
2022-10-20T00:52:44.680Z,14.31
2022-10-20T00:55:20.302Z,14.31
2022-10-20T00:57:53.869Z,14.32
2022-10-20T01:00:26.879Z,14.28
2022-10-20T01:03:03.543Z,14.28
2022-10-20T01:05:35.632Z,14.36
2022-10-20T01:08:08.044Z,14.37
2022-10-20T01:10:48.712Z,14.37
2022-10-20T01:13:31.289Z,14.36
2022-10-20T01:16:14.158Z,14.36
2022-10-20T01:18:53.191Z,14.34
2022-10-20T01:21:49.126Z,14.32
2022-10-20T01:24:47.609Z,14.26
2022-10-20T01:27:38.565Z,14.22
2022-10-20T01:30:16.461Z,14.19
2022-10-20T01:33:04.426Z,14.17
2022-10-20T01:35:45.009Z,14.15
2022-10-20T01:38:26.364Z,14.09
2022-10-20T01:41:03.781Z,14.07
2022-10-20T01:43:37.888Z,14.11
2022-10-20T01:46:12.808Z,14.10
2022-10-20T01:48:47.553Z,14.10
2022-10-20T01:51:19.743Z,14.10
2022-10-20T01:53:51.928Z,14.12
2022-10-20T01:56:33.987Z,14.12
2022-10-20T01:59:27.660Z,14.07
2022-10-20T02:02:16.425Z,14.06
2022-10-20T02:05:02.301Z,14.05
2022-10-20T02:07:36.843Z,14.04
2022-10-20T02:10:14.850Z,13.98
2022-10-20T02:12:50.476Z,14.03
2022-10-20T02:15:26.955Z,13.97
2022-10-20T02:18:08.540Z,13.89
2022-10-20T02:20:42.857Z,13.93
2022-10-20T02:23:15.452Z,13.91
2022-10-20T02:25:50.809Z,13.89
2022-10-20T02:28:23.899Z,13.95
2022-10-20T02:30:56.763Z,13.95
2022-10-20T02:33:30.631Z,13.91
2022-10-20T02:36:05.696Z,13.88
2022-10-20T02:38:37.905Z,13.86
2022-10-20T02:41:10.059Z,13.77
2022-10-20T02:43:42.126Z,13.80
2022-10-20T02:46:17.287Z,13.75
2022-10-20T02:48:49.792Z,13.73
2022-10-20T02:51:21.885Z,13.70
2022-10-20T02:53:54.906Z,13.67
2022-10-20T02:56:28.893Z,13.62
2022-10-20T02:59:03.180Z,13.63
2022-10-20T03:01:35.384Z,13.57
2022-10-20T03:04:07.963Z,13.52
2022-10-20T03:06:40.045Z,13.48
2022-10-20T03:09:12.160Z,13.46
2022-10-20T03:11:44.435Z,13.44
2022-10-20T03:14:16.714Z,13.42
2022-10-20T03:16:48.893Z,13.39
2022-10-20T03:19:21.146Z,13.39
2022-10-20T03:21:53.207Z,13.37
2022-10-20T03:24:25.274Z,13.35
2022-10-20T03:26:57.349Z,13.33
2022-10-20T03:29:29.588Z,13.24
2022-10-20T03:32:04.232Z,13.29
2022-10-20T03:34:36.678Z,13.22
2022-10-20T03:37:08.777Z,13.28
2022-10-20T03:39:40.882Z,13.28
2022-10-20T03:42:12.946Z,13.28
2022-10-20T03:44:46.091Z,13.28
2022-10-20T03:47:18.144Z,13.26
2022-10-20T03:49:50.309Z,13.22
2022-10-20T03:52:22.467Z,13.20
2022-10-20T03:54:54.625Z,13.19
2022-10-20T03:57:26.710Z,13.17
2022-10-20T03:59:58.846Z,13.15
2022-10-20T04:02:36.312Z,13.12
2022-10-20T04:05:09.840Z,13.05
2022-10-20T04:07:41.919Z,13.04
2022-10-20T04:10:15.661Z,13.06
2022-10-20T04:12:48.200Z,13.06
2022-10-20T04:15:20.507Z,13.03
2022-10-20T04:17:52.957Z,13.01
2022-10-20T04:20:25.100Z,12.93
2022-10-20T04:22:57.179Z,12.86
2022-10-20T04:25:29.299Z,12.81
2022-10-20T04:28:01.468Z,12.78
2022-10-20T04:30:33.541Z,12.73
2022-10-20T04:33:05.620Z,12.68
2022-10-20T04:35:37.892Z,12.63
2022-10-20T04:38:10.148Z,12.58
2022-10-20T04:40:42.204Z,12.54
2022-10-20T04:43:14.288Z,12.49
2022-10-20T04:45:46.394Z,12.46
2022-10-20T04:48:18.680Z,12.37
2022-10-20T04:51:00.379Z,12.41
2022-10-20T04:53:32.483Z,12.40
2022-10-20T04:56:08.695Z,12.39
2022-10-20T04:58:40.827Z,12.38
2022-10-20T05:01:13.130Z,12.37
2022-10-20T05:03:45.419Z,12.33
2022-10-20T05:06:19.927Z,12.26
2022-10-20T05:08:54.337Z,12.22
2022-10-20T05:11:28.888Z,12.14
2022-10-20T05:14:01.001Z,12.14
2022-10-20T05:16:33.027Z,12.07
2022-10-20T05:19:05.308Z,12.05
2022-10-20T05:21:37.372Z,11.99
2022-10-20T05:24:09.535Z,11.97
2022-10-20T05:26:41.602Z,12.04
2022-10-20T05:29:14.337Z,12.20
2022-10-20T05:31:46.837Z,12.33
2022-10-20T05:34:19.455Z,12.41
2022-10-20T05:36:53.463Z,12.49
2022-10-20T05:39:25.716Z,12.54
2022-10-20T05:41:57.745Z,12.51
2022-10-20T05:44:29.974Z,12.56
2022-10-20T05:47:02.017Z,12.52
2022-10-20T05:49:34.055Z,12.45
2022-10-20T05:52:06.164Z,12.32
2022-10-20T05:54:37.919Z,12.25
2022-10-20T05:57:09.967Z,12.19
2022-10-20T05:59:42.044Z,12.18
2022-10-20T06:02:14.576Z,12.18
2022-10-20T06:04:46.880Z,12.17
2022-10-20T06:07:18.943Z,12.14
2022-10-20T06:09:51.695Z,12.15
2022-10-20T06:12:23.772Z,12.16
2022-10-20T06:14:55.784Z,12.24
2022-10-20T06:17:27.990Z,12.39
2022-10-20T06:20:00.070Z,12.60
2022-10-20T06:22:32.129Z,12.84
2022-10-20T06:25:04.248Z,13.06
2022-10-20T06:27:36.382Z,13.15
2022-10-20T06:30:10.250Z,13.27
2022-10-20T06:32:42.325Z,13.40
2022-10-20T06:35:14.391Z,13.55
2022-10-20T06:37:46.359Z,13.68
2022-10-20T06:40:18.874Z,13.75
2022-10-20T06:42:51.031Z,13.85
2022-10-20T06:45:23.138Z,13.88
2022-10-20T06:47:55.288Z,14.01
2022-10-20T06:50:27.321Z,13.98
2022-10-20T06:52:59.402Z,14.06
2022-10-20T06:55:31.595Z,14.02
2022-10-20T06:58:04.111Z,14.07
2022-10-20T07:00:36.307Z,14.26
2022-10-20T07:03:08.462Z,14.33
2022-10-20T07:05:40.544Z,14.24
2022-10-20T07:08:12.729Z,14.07
2022-10-20T07:10:44.803Z,13.95
2022-10-20T07:13:17.049Z,13.75
2022-10-20T07:15:49.291Z,13.45
2022-10-20T07:18:21.383Z,13.25
2022-10-20T07:20:57.033Z,13.24
2022-10-20T07:23:30.127Z,13.41
2022-10-20T07:26:06.564Z,13.55
2022-10-20T07:28:41.181Z,13.48
2022-10-20T07:31:15.545Z,13.46
2022-10-20T07:34:01.191Z,13.37
2022-10-20T07:36:42.489Z,13.27
2022-10-20T07:39:15.497Z,13.21
2022-10-20T07:41:48.359Z,13.20
2022-10-20T07:44:21.016Z,13.18
2022-10-20T07:46:53.172Z,13.24
2022-10-20T07:49:43.569Z,13.24
2022-10-20T07:52:17.208Z,13.19
2022-10-20T07:54:49.419Z,13.23
2022-10-20T07:57:21.624Z,13.24
2022-10-20T07:59:53.782Z,13.27
2022-10-20T08:02:26.064Z,13.32
2022-10-20T08:04:58.176Z,13.37
2022-10-20T08:07:30.276Z,13.49
2022-10-20T08:10:02.405Z,13.59
2022-10-20T08:12:34.999Z,13.62
2022-10-20T08:15:08.724Z,13.66
2022-10-20T08:17:40.983Z,13.78
2022-10-20T08:20:14.545Z,13.76
2022-10-20T08:22:46.712Z,13.80
2022-10-20T08:25:19.244Z,13.77
2022-10-20T08:27:51.447Z,13.75
2022-10-20T08:30:24.577Z,13.75
2022-10-20T08:32:56.970Z,13.78
2022-10-20T08:35:29.298Z,13.87
2022-10-20T08:38:01.513Z,14.00
2022-10-20T08:40:35.521Z,14.09
2022-10-20T08:43:08.320Z,14.19
2022-10-20T08:45:42.359Z,14.45
2022-10-20T08:48:19.708Z,14.89
2022-10-20T08:50:53.855Z,15.28
2022-10-20T08:53:27.751Z,15.61
2022-10-20T08:56:00.433Z,15.93
2022-10-20T08:58:32.712Z,16.07
2022-10-20T09:01:15.745Z,16.14
2022-10-20T09:03:50.840Z,16.26
2022-10-20T09:06:23.102Z,16.54
2022-10-20T09:08:56.458Z,16.90
2022-10-20T09:11:34.747Z,17.14
2022-10-20T09:14:09.577Z,17.28
2022-10-20T09:16:59.321Z,17.46
2022-10-20T09:19:33.240Z,17.56
2022-10-20T09:22:08.477Z,17.63
2022-10-20T09:24:42.869Z,17.44
2022-10-20T09:27:31.153Z,16.93
2022-10-20T09:30:17.401Z,16.53
2022-10-20T09:32:50.682Z,16.39
2022-10-20T09:35:29.185Z,16.31
2022-10-20T09:38:05.943Z,16.16
2022-10-20T09:40:44.927Z,15.87
2022-10-20T09:43:20.006Z,15.68
2022-10-20T09:45:56.460Z,15.76
2022-10-20T09:48:32.100Z,15.70
2022-10-20T09:51:07.452Z,15.61
2022-10-20T09:53:52.855Z,15.65
2022-10-20T09:56:31.376Z,15.65
2022-10-20T09:59:07.620Z,15.62
2022-10-20T10:01:56.192Z,15.50
2022-10-20T10:04:37.655Z,15.45
2022-10-20T10:07:33.132Z,15.59
2022-10-20T10:10:08.873Z,15.80
2022-10-20T10:12:41.328Z,15.80
2022-10-20T10:15:28.311Z,15.75
2022-10-20T10:18:01.785Z,15.86
2022-10-20T10:20:38.883Z,16.13
2022-10-20T10:23:20.764Z,16.24
2022-10-20T10:25:56.600Z,16.40
2022-10-20T10:28:42.148Z,16.64
2022-10-20T10:31:27.480Z,16.91
2022-10-20T10:34:32.167Z,17.01
2022-10-20T10:37:04.275Z,17.15
2022-10-20T10:39:38.730Z,17.20
2022-10-20T10:42:38.920Z,17.21
2022-10-20T10:45:44.060Z,17.02
2022-10-20T10:48:53.080Z,16.89
2022-10-20T10:51:37.955Z,16.99
2022-10-20T10:54:29.663Z,16.99
2022-10-20T10:57:08.014Z,16.84
2022-10-20T10:59:45.695Z,16.75
2022-10-20T11:02:52.435Z,16.82
2022-10-20T11:05:34.062Z,16.85
2022-10-20T11:08:20.372Z,16.83
2022-10-20T11:11:01.359Z,16.69
2022-10-20T11:13:40.038Z,16.49
2022-10-20T11:16:22.480Z,16.42
2022-10-20T11:19:19.120Z,16.41
2022-10-20T11:22:03.881Z,16.31
2022-10-20T11:24:46.933Z,16.16
2022-10-20T11:27:21.836Z,16.07
2022-10-20T11:30:04.711Z,15.98
2022-10-20T11:32:42.697Z,15.97
2022-10-20T11:35:30.323Z,15.98
2022-10-20T11:38:19.549Z,15.95
2022-10-20T11:41:00.024Z,16.00
2022-10-20T11:43:38.399Z,16.10
2022-10-20T11:46:14.091Z,16.11
2022-10-20T11:48:52.095Z,16.06
2022-10-20T11:51:56.695Z,16.03
2022-10-20T11:55:13.453Z,16.04
2022-10-20T11:58:02.811Z,16.02
2022-10-20T12:00:59.672Z,16.01
2022-10-20T12:03:54.220Z,15.99
2022-10-20T12:06:52.500Z,16.15
2022-10-20T12:09:44.229Z,16.25
2022-10-20T12:12:21.206Z,16.29
2022-10-20T12:15:00.664Z,16.30
2022-10-20T12:17:42.708Z,16.33
2022-10-20T12:20:51.915Z,16.34
2022-10-20T12:24:05.980Z,16.25
2022-10-20T12:27:25.698Z,16.06
2022-10-20T12:30:07.502Z,15.94
2022-10-20T12:32:58.592Z,16.01
2022-10-20T12:36:03.125Z,16.01
2022-10-20T12:38:35.327Z,16.01
2022-10-20T12:41:09.535Z,16.04
2022-10-20T12:43:52.465Z,16.05
2022-10-20T12:46:31.443Z,16.02
2022-10-20T12:49:10.989Z,16.00
2022-10-20T12:51:54.307Z,15.98
2022-10-20T12:54:31.360Z,15.98
2022-10-20T12:57:07.298Z,16.00
2022-10-20T12:59:41.263Z,15.92
2022-10-20T13:02:52.736Z,15.92
2022-10-20T13:05:42.044Z,15.90
2022-10-20T13:08:34.775Z,15.90
2022-10-20T13:11:41.319Z,15.92
2022-10-20T13:14:42.938Z,15.94
2022-10-20T13:17:27.835Z,16.01
2022-10-20T13:20:04.103Z,16.06
2022-10-20T13:22:43.509Z,16.02
2022-10-20T13:25:41.710Z,16.01
2022-10-20T13:28:22.871Z,15.97
2022-10-20T13:31:12.116Z,15.94
2022-10-20T13:34:04.571Z,15.92
2022-10-20T13:37:00.102Z,15.92
2022-10-20T13:39:40.767Z,15.93
2022-10-20T13:42:24.996Z,15.91
2022-10-20T13:45:04.713Z,15.86
2022-10-20T13:48:05.693Z,15.84
2022-10-20T13:50:41.366Z,15.80
2022-10-20T13:53:22.354Z,15.78
2022-10-20T13:56:03.191Z,15.80
2022-10-20T13:58:36.437Z,15.84
2022-10-20T14:01:16.928Z,15.84
2022-10-20T14:03:50.440Z,15.83
2022-10-20T14:06:37.292Z,15.84
2022-10-20T14:09:17.085Z,15.84
2022-10-20T14:11:51.684Z,15.83
2022-10-20T14:14:27.481Z,15.82
2022-10-20T14:16:59.140Z,15.83
2022-10-20T14:19:33.751Z,15.82
2022-10-20T14:22:19.557Z,15.77
2022-10-20T14:24:55.489Z,15.72
2022-10-20T14:27:30.472Z,15.67
2022-10-20T14:30:05.574Z,15.64
2022-10-20T14:32:41.669Z,15.62
2022-10-20T14:35:28.647Z,15.57
2022-10-20T14:38:04.442Z,15.54
2022-10-20T14:40:36.333Z,15.51
2022-10-20T14:43:15.892Z,15.48
2022-10-20T14:45:57.820Z,15.45
2022-10-20T14:48:33.820Z,15.39
2022-10-20T14:51:26.198Z,15.40
2022-10-20T14:54:24.334Z,15.39
2022-10-20T14:56:58.457Z,15.38
2022-10-20T14:59:32.894Z,15.36
2022-10-20T15:02:12.414Z,15.35
2022-10-20T15:04:46.039Z,15.34
2022-10-20T15:07:20.474Z,15.33
2022-10-20T15:09:55.289Z,15.32
2022-10-20T15:12:33.244Z,15.31
2022-10-20T15:15:20.549Z,15.28
2022-10-20T15:17:55.253Z,15.26
2022-10-20T15:20:38.864Z,15.22
2022-10-20T15:23:13.500Z,15.20
2022-10-20T15:25:51.410Z,15.18
2022-10-20T15:28:31.605Z,15.15
2022-10-20T15:31:05.368Z,15.12
2022-10-20T15:33:37.430Z,15.07
2022-10-20T15:36:16.267Z,15.04
2022-10-20T15:38:48.732Z,15.00
2022-10-20T15:41:23.027Z,14.95
2022-10-20T15:43:55.425Z,14.90
2022-10-20T15:46:27.560Z,14.86
2022-10-20T15:48:59.654Z,14.80
2022-10-20T15:51:34.615Z,14.76
2022-10-20T15:54:06.972Z,14.72
2022-10-20T15:56:39.072Z,14.68
2022-10-20T15:59:11.329Z,14.64
2022-10-20T16:01:43.675Z,14.61
2022-10-20T16:04:26.255Z,14.56
2022-10-20T16:07:02.624Z,14.51
2022-10-20T16:09:35.269Z,14.47
2022-10-20T16:12:08.075Z,14.42
2022-10-20T16:14:40.403Z,14.35
2022-10-20T16:17:12.495Z,14.30
2022-10-20T16:19:44.616Z,14.27
2022-10-20T16:22:16.672Z,14.19
2022-10-20T16:24:49.249Z,14.13
2022-10-20T16:27:21.459Z,14.06
2022-10-20T16:29:54.396Z,13.98
2022-10-20T16:32:29.118Z,13.92
2022-10-20T16:35:03.465Z,13.80
2022-10-20T16:37:36.107Z,13.80
2022-10-20T16:40:10.276Z,13.72
2022-10-20T16:42:42.376Z,13.65
2022-10-20T16:45:14.612Z,13.61
2022-10-20T16:47:46.936Z,13.57
2022-10-20T16:50:19.319Z,13.53
2022-10-20T16:52:51.393Z,13.51
2022-10-20T16:55:23.456Z,13.49
2022-10-20T16:57:56.000Z,13.47
2022-10-20T17:00:28.064Z,13.43
2022-10-20T17:03:00.203Z,13.42
2022-10-20T17:05:32.320Z,13.40
2022-10-20T17:08:04.555Z,13.35
2022-10-20T17:10:39.112Z,13.30
2022-10-20T17:13:11.534Z,13.27
2022-10-20T17:15:43.668Z,13.23
2022-10-20T17:18:15.739Z,13.18
2022-10-20T17:20:48.308Z,13.14
2022-10-20T17:23:20.373Z,13.11
2022-10-20T17:25:52.937Z,13.10
2022-10-20T17:28:25.008Z,13.02
2022-10-20T17:30:58.426Z,13.04
2022-10-20T17:33:32.091Z,13.02
2022-10-20T17:36:04.932Z,12.97
2022-10-20T17:38:37.196Z,12.96
2022-10-20T17:41:10.691Z,12.94
2022-10-20T17:43:43.235Z,12.92
2022-10-20T17:46:17.388Z,12.88
2022-10-20T17:48:49.867Z,12.85
2022-10-20T17:51:24.546Z,12.81
2022-10-20T17:53:58.604Z,12.81
2022-10-20T17:56:32.699Z,12.79
2022-10-20T17:59:07.588Z,12.78
2022-10-20T18:01:41.954Z,12.76
2022-10-20T18:04:15.920Z,12.77
2022-10-20T18:06:48.619Z,12.75
2022-10-20T18:09:21.247Z,12.75
2022-10-20T18:11:53.747Z,12.76
2022-10-20T18:14:25.931Z,12.75
2022-10-20T18:16:57.997Z,12.73
2022-10-20T18:19:30.166Z,12.70
2022-10-20T18:22:02.373Z,12.68
2022-10-20T18:24:35.671Z,12.67
2022-10-20T18:27:08.032Z,12.66
2022-10-20T18:29:40.454Z,12.66
2022-10-20T18:32:12.773Z,12.61
2022-10-20T18:34:44.800Z,12.66
2022-10-20T18:37:19.377Z,12.66
2022-10-20T18:39:51.508Z,12.67
2022-10-20T18:42:23.603Z,12.67
2022-10-20T18:44:55.677Z,12.66
2022-10-20T18:47:27.785Z,12.66
2022-10-20T18:49:59.840Z,12.66
2022-10-20T18:52:31.935Z,12.66
2022-10-20T18:55:04.529Z,12.66
2022-10-20T18:57:39.653Z,12.66
2022-10-20T19:00:14.425Z,12.66
2022-10-20T19:02:50.842Z,12.67
2022-10-20T19:05:22.959Z,12.68
2022-10-20T19:07:55.003Z,12.69
2022-10-20T19:10:27.487Z,12.70
2022-10-20T19:12:59.576Z,12.71
2022-10-20T19:15:31.674Z,12.73
2022-10-20T19:18:03.743Z,12.72
2022-10-20T19:20:35.915Z,12.72
2022-10-20T19:23:07.984Z,12.71
2022-10-20T19:25:40.074Z,12.71
2022-10-20T19:28:12.773Z,12.69
2022-10-20T19:30:44.860Z,12.67
2022-10-20T19:33:17.014Z,12.65
2022-10-20T19:35:49.928Z,12.65
2022-10-20T19:38:22.152Z,12.65
2022-10-20T19:40:54.747Z,12.60
2022-10-20T19:43:26.892Z,12.55
2022-10-20T19:45:59.464Z,12.49
2022-10-20T19:48:31.604Z,12.43
2022-10-20T19:51:04.110Z,12.37
2022-10-20T19:53:37.473Z,12.32
2022-10-20T19:56:12.092Z,12.26
2022-10-20T19:58:46.683Z,12.20
2022-10-20T20:01:19.906Z,12.11
2022-10-20T20:03:52.246Z,12.00
2022-10-20T20:06:26.564Z,12.01
2022-10-20T20:09:01.451Z,11.94
2022-10-20T20:11:34.868Z,11.88
2022-10-20T20:14:09.300Z,11.85
2022-10-20T20:19:20.502Z,11.73
2022-10-20T20:21:52.591Z,11.68
2022-10-20T20:24:24.757Z,11.62
2022-10-20T20:26:56.812Z,11.55
2022-10-20T20:29:29.147Z,11.48
2022-10-20T20:32:01.236Z,11.42
2022-10-20T20:34:33.335Z,11.36
2022-10-20T20:37:05.441Z,11.25
2022-10-20T20:39:37.624Z,11.21
2022-10-20T20:42:09.690Z,11.15
2022-10-20T20:44:41.852Z,11.10
2022-10-20T20:47:14.048Z,11.05
2022-10-20T20:49:46.148Z,10.98
2022-10-20T20:52:18.319Z,10.94
2022-10-20T20:54:50.417Z,10.91
2022-10-20T20:57:22.584Z,10.89
2022-10-20T20:59:54.776Z,10.87
2022-10-20T21:02:26.835Z,10.85
2022-10-20T21:04:58.903Z,10.82
2022-10-20T21:07:30.961Z,10.77
2022-10-20T21:10:03.073Z,10.74
2022-10-20T21:12:35.506Z,10.72
2022-10-20T21:15:10.062Z,10.70
2022-10-20T21:17:42.147Z,10.67
2022-10-20T21:20:14.540Z,10.64
2022-10-20T21:22:46.712Z,10.61
2022-10-20T21:25:18.988Z,10.59
2022-10-20T21:27:51.527Z,10.55
2022-10-20T21:30:23.753Z,10.52
2022-10-20T21:32:55.897Z,10.49
2022-10-20T21:35:28.128Z,10.45
2022-10-20T21:38:00.351Z,10.42
2022-10-20T21:40:32.877Z,10.38
2022-10-20T21:43:04.987Z,10.36
2022-10-20T21:45:37.132Z,10.34
2022-10-20T21:48:09.656Z,10.32
2022-10-20T21:50:41.757Z,10.30
2022-10-20T21:53:13.833Z,10.28
2022-10-20T21:55:45.905Z,10.27
2022-10-20T21:58:20.355Z,10.25
2022-10-20T22:00:54.208Z,10.26
2022-10-20T22:03:26.845Z,10.26
2022-10-20T22:05:58.933Z,10.24
2022-10-20T22:08:31.363Z,10.24
2022-10-20T22:11:07.288Z,10.21
2022-10-20T22:13:40.271Z,10.18
2022-10-20T22:16:15.560Z,10.14
2022-10-20T22:18:47.885Z,10.14
2022-10-20T22:21:20.898Z,10.15
2022-10-20T22:23:55.754Z,10.13
2022-10-20T22:26:29.411Z,10.12
2022-10-20T22:29:02.524Z,10.12
2022-10-20T22:31:34.550Z,10.11
2022-10-20T22:34:07.243Z,10.10
2022-10-20T22:36:40.984Z,10.09
2022-10-20T22:41:50.717Z,10.08
2022-10-20T22:44:22.987Z,10.08
2022-10-20T22:46:55.080Z,10.11
2022-10-20T22:49:27.210Z,10.11
2022-10-20T22:51:59.384Z,10.09
2022-10-20T22:54:31.483Z,10.07
2022-10-20T22:57:03.500Z,10.03
2022-10-20T22:59:35.593Z,9.98
2022-10-20T23:02:07.626Z,9.96
2022-10-20T23:04:39.596Z,9.94
2022-10-20T23:07:11.730Z,9.93
2022-10-20T23:09:43.854Z,9.89
2022-10-20T23:12:15.922Z,9.81
2022-10-20T23:14:47.979Z,9.76
2022-10-20T23:17:20.008Z,9.74
2022-10-20T23:19:52.058Z,9.69
2022-10-20T23:22:24.290Z,9.62
2022-10-20T23:24:56.386Z,9.56
2022-10-20T23:27:28.473Z,9.50
2022-10-20T23:30:00.602Z,9.45
2022-10-20T23:32:33.881Z,9.41
2022-10-20T23:35:06.497Z,9.37
2022-10-20T23:37:39.914Z,9.37
2022-10-20T23:40:13.954Z,9.36
2022-10-20T23:42:45.993Z,9.35
2022-10-20T23:45:18.144Z,9.32
2022-10-20T23:47:50.304Z,9.28
2022-10-20T23:50:23.583Z,9.26
2022-10-20T23:52:55.742Z,9.23
2022-10-20T23:55:27.941Z,9.20
2022-10-20T23:58:00.044Z,9.21
